Time;durP1;ratioP1;P1;durP2;ratioP2;P2;SDS_P1;SDS_P2;PMS_P1;PMS_P2;Temp;Humidity;BMP_temperature;BMP_pressure;BME280_temperature;BME280_humidity;BME280_pressure;Samples;Min_cycle;Max_cycle;Signal;HPM_P1;HPM_P2
2022/09/05 00:02:51;;;;;;;6.18;3.50;;;18.20;99.90;;;;;;5071286;28;20020;-44
2022/09/05 00:05:17;;;;;;;4.80;3.50;;;18.30;99.90;;;;;;5071723;28;20415;-50
2022/09/05 00:08:03;;;;;;;3.58;3.28;;;18.20;99.90;;;;;;5071097;28;20074;-46
2022/09/05 00:11:04;;;;;;;4.25;3.28;;;18.20;99.90;;;;;;5071281;28;20099;-47
2022/09/05 00:13:54;;;;;;;6.78;3.65;;;18.20;99.90;;;;;;5002944;28;20077;-48
2022/09/05 00:16:45;;;;;;;3.53;3.33;;;18.20;99.90;;;;;;5064207;28;20028;-44
2022/09/05 00:19:31;;;;;;;4.70;3.72;;;18.10;99.90;;;;;;5075045;28;20035;-47
2022/09/05 00:22:10;;;;;;;4.05;3.53;;;18.10;99.90;;;;;;5056598;28;20516;-45
2022/09/05 00:24:52;;;;;;;5.18;3.75;;;18.10;99.90;;;;;;5074977;28;20021;-48
2022/09/05 00:27:20;;;;;;;4.20;3.78;;;18.10;99.90;;;;;;5075173;28;20108;-42
2022/09/05 00:30:21;;;;;;;4.50;3.92;;;18.00;99.90;;;;;;5056846;28;20499;-40
2022/09/05 00:33:08;;;;;;;4.35;3.80;;;17.90;99.90;;;;;;4992648;28;20173;-45
2022/09/05 00:35:50;;;;;;;3.80;3.50;;;17.80;99.90;;;;;;5069523;28;20044;-45
2022/09/05 00:38:19;;;;;;;4.22;3.50;;;17.70;99.90;;;;;;5074846;28;20025;-48
2022/09/05 00:40:49;;;;;;;5.30;3.83;;;17.60;99.90;;;;;;5056743;28;20478;-44
2022/09/05 00:43:29;;;;;;;6.30;3.72;;;17.70;99.90;;;;;;5074164;28;20031;-49
2022/09/05 00:46:01;;;;;;;4.70;4.30;;;17.70;99.90;;;;;;5056510;28;20306;-47
2022/09/05 00:48:33;;;;;;;4.15;3.70;;;17.70;99.90;;;;;;5074379;28;20055;-49
2022/09/05 00:51:31;;;;;;;3.92;3.60;;;17.60;99.90;;;;;;5074628;28;20029;-49
2022/09/05 00:54:21;;;;;;;4.22;3.30;;;17.60;99.90;;;;;;5074295;28;20029;-49
2022/09/05 00:56:58;;;;;;;3.95;3.40;;;17.60;99.90;;;;;;5074469;28;20072;-47
2022/09/05 00:59:42;;;;;;;4.15;3.53;;;17.50;99.90;;;;;;5074787;28;20054;-45
2022/09/05 01:02:28;;;;;;;4.43;3.47;;;17.40;99.90;;;;;;5074331;28;20021;-45
2022/09/05 01:05:20;;;;;;;6.65;3.53;;;17.30;99.90;;;;;;5074749;28;20116;-43
2022/09/05 01:08:23;;;;;;;3.90;3.58;;;17.20;99.90;;;;;;5074257;28;20034;-48
2022/09/05 01:11:23;;;;;;;6.20;4.20;;;17.00;99.90;;;;;;5074250;28;20146;-44
2022/09/05 01:14:00;;;;;;;5.70;3.80;;;17.00;99.90;;;;;;5074096;28;20021;-47
2022/09/05 01:17:07;;;;;;;4.57;3.95;;;17.00;99.90;;;;;;5074050;28;20024;-45
2022/09/05 01:19:48;;;;;;;;;;;17.00;99.90;;;;;;5056660;28;20438;-45
2022/09/05 01:22:39;;;;;;;7.20;4.65;;;17.00;99.90;;;;;;5073532;28;19909;-46
2022/09/05 01:25:26;;;;;;;6.10;3.95;;;17.10;99.90;;;;;;5074280;28;20025;-46
2022/09/05 01:27:58;;;;;;;4.75;3.97;;;17.10;99.90;;;;;;5073739;28;20021;-46
2022/09/05 01:30:31;;;;;;;5.72;3.97;;;17.10;99.90;;;;;;5073659;28;20028;-44
2022/09/05 01:33:07;;;;;;;5.00;4.50;;;17.10;99.90;;;;;;5073300;28;20039;-48
2022/09/05 01:35:42;;;;;;;4.90;4.50;;;17.10;99.90;;;;;;5073842;28;20028;-50
2022/09/05 01:38:31;;;;;;;;;;;17.00;99.90;;;;;;5073950;28;20054;-44
2022/09/05 01:41:22;;;;;;;7.00;3.90;;;17.00;99.90;;;;;;5073959;28;19909;-50
2022/09/05 01:44:11;;;;;;;6.28;4.40;;;16.90;99.90;;;;;;5073360;28;20021;-48
2022/09/05 01:46:50;;;;;;;10.80;4.68;;;16.90;99.90;;;;;;5073636;28;20024;-45
2022/09/05 01:49:52;;;;;;;5.72;4.07;;;16.90;99.90;;;;;;5073546;28;20511;-49
2022/09/05 01:52:25;;;;;;;6.28;4.43;;;16.90;99.90;;;;;;5073252;28;20020;-47
2022/09/05 01:55:02;;;;;;;9.43;4.65;;;17.00;99.90;;;;;;5073331;28;20020;-45
2022/09/05 01:58:05;;;;;;;5.07;4.38;;;17.00;99.90;;;;;;5073096;28;20060;-45
2022/09/05 02:00:46;;;;;;;5.53;4.40;;;17.00;99.90;;;;;;5073111;28;20480;-45
2022/09/05 02:03:55;;;;;;;5.00;4.30;;;16.90;99.90;;;;;;5073156;28;20094;-47
2022/09/05 02:06:42;;;;;;;5.88;5.00;;;16.90;99.90;;;;;;5072995;28;20520;-45
2022/09/05 02:09:29;;;;;;;8.57;4.57;;;16.70;99.90;;;;;;5073003;28;20029;-44
2022/09/05 02:12:04;;;;;;;4.53;4.13;;;16.60;99.90;;;;;;5072881;28;20025;-49
2022/09/05 02:14:40;;;;;;;4.43;4.13;;;16.60;99.90;;;;;;5073066;28;20024;-45
2022/09/05 02:17:27;;;;;;;4.40;4.00;;;16.50;99.90;;;;;;5072896;28;20119;-45
2022/09/05 02:20:04;;;;;;;5.53;3.40;;;16.50;99.90;;;;;;5072603;28;20103;-48
2022/09/05 02:23:04;;;;;;;4.65;4.25;;;16.40;99.90;;;;;;5072422;28;20035;-46
2022/09/05 02:25:43;;;;;;;4.78;4.38;;;16.30;99.90;;;;;;5072162;28;20132;-45
2022/09/05 02:28:19;;;;;;;4.13;3.83;;;16.30;99.90;;;;;;5072484;28;20150;-45
2022/09/05 02:30:52;;;;;;;4.43;4.13;;;16.30;99.90;;;;;;5072630;28;20062;-48
2022/09/05 02:33:50;;;;;;;4.32;3.95;;;16.20;99.90;;;;;;5072245;28;20032;-48
2022/09/05 02:36:48;;;;;;;3.88;3.58;;;16.10;99.90;;;;;;5058475;28;20045;-48
2022/09/05 02:39:34;;;;;;;7.45;4.40;;;16.20;99.90;;;;;;5072432;28;20070;-46
2022/09/05 02:42:23;;;;;;;3.97;3.67;;;16.20;99.90;;;;;;5072159;28;20029;-47
2022/09/05 02:44:48;;;;;;;3.65;3.38;;;16.10;99.90;;;;;;5072323;28;20046;-46
2022/09/05 02:47:38;;;;;;;3.95;3.45;;;16.00;99.90;;;;;;5072251;28;20031;-46
2022/09/05 02:50:25;;;;;;;4.25;3.85;;;15.90;99.90;;;;;;5072213;28;20476;-46
2022/09/05 02:52:52;;;;;;;7.28;4.10;;;15.90;99.90;;;;;;5072089;28;20024;-49
2022/09/05 02:55:38;;;;;;;4.10;3.80;;;15.90;99.90;;;;;;5072341;28;20105;-45
2022/09/05 02:58:06;;;;;;;;;;;15.70;99.90;;;;;;5071659;28;20459;-47
2022/09/05 03:00:50;;;;;;;4.53;4.13;;;15.80;99.90;;;;;;5071772;28;20382;-48
2022/09/05 03:03:36;;;;;;;7.57;3.85;;;15.80;99.90;;;;;;5071712;28;20028;-48
2022/09/05 03:06:20;;;;;;;4.18;3.78;;;15.90;99.90;;;;;;5072000;28;20070;-43
2022/09/05 03:08:55;;;;;;;4.50;4.10;;;15.90;99.90;;;;;;5072265;28;20042;-47
2022/09/05 03:11:26;;;;;;;4.90;4.50;;;15.80;99.90;;;;;;5071947;28;20025;-44
2022/09/05 03:14:25;;;;;;;4.18;3.88;;;15.80;99.90;;;;;;5071614;28;20372;-49
2022/09/05 03:17:08;;;;;;;3.90;3.60;;;15.80;99.90;;;;;;5071649;28;20050;-44
2022/09/05 03:20:13;;;;;;;5.57;3.88;;;15.90;99.90;;;;;;5071908;28;20184;-52
2022/09/05 03:22:59;;;;;;;4.93;3.85;;;15.90;99.90;;;;;;5043109;28;20044;-47
2022/09/05 03:26:13;;;;;;;5.07;4.53;;;15.90;99.90;;;;;;5071669;28;20044;-45
2022/09/05 03:29:24;;;;;;;4.93;4.45;;;15.90;99.90;;;;;;5071560;28;20039;-45
2022/09/05 03:31:52;;;;;;;6.25;5.65;;;16.00;99.90;;;;;;5071420;28;20394;-46
2022/09/05 03:34:39;;;;;;;5.82;5.05;;;16.00;99.90;;;;;;5071442;28;20021;-42
2022/09/05 03:37:36;;;;;;;9.02;4.43;;;16.10;99.90;;;;;;5071365;28;20024;-46
2022/09/05 03:40:24;;;;;;;6.30;4.38;;;16.10;99.90;;;;;;5040106;28;20029;-45
2022/09/05 03:42:59;;;;;;;6.40;4.78;;;16.10;99.90;;;;;;5071200;28;20024;-45
2022/09/05 03:45:33;;;;;;;4.38;4.03;;;16.20;99.90;;;;;;5071163;28;20025;-46
2022/09/05 03:48:04;;;;;;;5.78;5.25;;;16.20;99.90;;;;;;5071305;28;20158;-46
2022/09/05 03:50:44;;;;;;;4.53;4.13;;;16.20;99.90;;;;;;5072048;28;20028;-44
2022/09/05 03:53:31;;;;;;;5.65;4.72;;;16.30;99.90;;;;;;5071111;28;20043;-45
2022/09/05 03:56:27;;;;;;;7.20;4.72;;;16.30;99.90;;;;;;5071728;28;20021;-45
2022/09/05 03:59:15;;;;;;;4.10;3.80;;;16.40;99.90;;;;;;5092324;22;20068;-44
2022/09/05 04:01:55;;;;;;;7.43;4.20;;;16.40;99.90;;;;;;5029965;28;20584;-44
2022/09/05 04:04:30;;;;;;;7.20;3.83;;;16.30;99.90;;;;;;5071303;28;20024;-44
2022/09/05 04:07:06;;;;;;;12.00;4.55;;;16.30;99.90;;;;;;5071323;28;20487;-46
2022/09/05 04:09:51;;;;;;;7.32;4.57;;;16.30;99.90;;;;;;5071372;28;20496;-48
2022/09/05 04:12:42;;;;;;;4.70;3.95;;;16.20;99.90;;;;;;5070892;28;20032;-47
2022/09/05 04:15:27;;;;;;;6.43;5.72;;;16.30;99.90;;;;;;5034966;28;20500;-44
2022/09/05 04:18:00;;;;;;;7.95;4.25;;;16.30;99.90;;;;;;5071290;28;20404;-44
2022/09/05 04:20:42;;;;;;;5.75;4.28;;;16.20;99.90;;;;;;5070873;28;20039;-46
2022/09/05 04:23:29;;;;;;;6.78;4.95;;;16.30;99.90;;;;;;5070647;28;20024;-44
2022/09/05 04:26:10;;;;;;;6.07;4.45;;;16.30;99.90;;;;;;5070909;28;20012;-42
2022/09/05 04:28:56;;;;;;;6.88;4.55;;;16.20;99.90;;;;;;5070860;28;20024;-49
2022/09/05 04:32:01;;;;;;;6.68;4.47;;;16.20;99.90;;;;;;5071086;28;20087;-46
2022/09/05 04:34:50;;;;;;;7.30;4.93;;;16.20;99.90;;;;;;5070903;28;20021;-48
2022/09/05 04:37:48;;;;;;;6.53;4.70;;;16.10;99.90;;;;;;5070907;28;20401;-48
2022/09/05 04:40:55;;;;;;;5.07;4.15;;;16.10;99.90;;;;;;5063393;28;20051;-46
2022/09/05 04:43:31;;;;;;;6.90;4.50;;;16.10;99.90;;;;;;5059635;28;20064;-46
2022/09/05 04:46:21;;;;;;;5.40;4.85;;;16.10;99.90;;;;;;5070761;28;20027;-44
2022/09/05 04:49:08;;;;;;;8.30;5.15;;;16.10;99.90;;;;;;5070644;28;20023;-45
2022/09/05 04:51:52;;;;;;;5.00;4.47;;;16.10;99.90;;;;;;5070715;28;20442;-47
2022/09/05 04:54:28;;;;;;;6.25;4.43;;;16.00;99.90;;;;;;5070620;28;20392;-48
2022/09/05 04:56:56;;;;;;;;;;;15.90;99.90;;;;;;5071103;28;20031;-46
2022/09/05 04:59:33;;;;;;;5.07;4.55;;;16.00;99.90;;;;;;5072367;28;19919;-43
2022/09/05 05:02:08;;;;;;;6.45;4.68;;;16.00;99.90;;;;;;5073899;28;20020;-42
2022/09/05 05:04:34;;;;;;;5.40;4.90;;;16.00;99.90;;;;;;5074166;28;20020;-44
2022/09/05 05:07:15;;;;;;;5.13;4.65;;;16.00;99.90;;;;;;5073976;28;20162;-47
2022/09/05 05:09:49;;;;;;;7.47;4.53;;;16.10;99.90;;;;;;5073928;28;20104;-43
2022/09/05 05:12:36;;;;;;;8.35;4.90;;;16.10;99.90;;;;;;5073748;28;20021;-45
2022/09/05 05:15:11;;;;;;;5.72;5.07;;;16.10;99.90;;;;;;5073959;28;20043;-44
2022/09/05 05:17:56;;;;;;;6.55;4.97;;;16.20;99.90;;;;;;5073399;28;20024;-41
2022/09/05 05:20:42;;;;;;;8.13;4.95;;;16.20;99.90;;;;;;5073741;28;20763;-45
2022/09/05 05:23:12;;;;;;;5.40;4.97;;;16.30;99.90;;;;;;5073324;28;20029;-43
2022/09/05 05:25:50;;;;;;;5.60;5.05;;;16.30;99.90;;;;;;5073648;28;20107;-47
2022/09/05 05:28:42;;;;;;;7.00;4.88;;;16.30;99.90;;;;;;5073609;28;20426;-43
2022/09/05 05:31:27;;;;;;;6.25;4.45;;;16.40;99.90;;;;;;5073606;28;20029;-43
2022/09/05 05:33:55;;;;;;;7.68;4.93;;;16.50;99.90;;;;;;5073652;28;20028;-44
2022/09/05 05:36:34;;;;;;;5.05;4.43;;;16.50;99.90;;;;;;5073617;28;20029;-44
2022/09/05 05:39:05;;;;;;;5.53;4.43;;;16.50;99.90;;;;;;5073233;28;20116;-44
2022/09/05 05:41:43;;;;;;;10.57;5.13;;;16.70;99.90;;;;;;5073255;28;20566;-43
2022/09/05 05:44:18;;;;;;;5.97;4.53;;;16.70;99.90;;;;;;5073455;28;20032;-44
2022/09/05 05:46:58;;;;;;;6.80;4.78;;;16.80;99.90;;;;;;5073371;28;20029;-46
2022/09/05 05:50:01;;;;;;;5.53;4.50;;;16.90;99.90;;;;;;5073466;28;20020;-47
2022/09/05 05:52:51;;;;;;;4.43;4.03;;;17.00;99.90;;;;;;5073017;28;20078;-46
2022/09/05 05:55:36;;;;;;;4.93;4.40;;;17.20;99.90;;;;;;5073007;28;20372;-43
2022/09/05 05:58:57;;;;;;;4.53;4.13;;;17.30;99.90;;;;;;5072672;28;20397;-45
2022/09/05 06:01:50;;;;;;;5.63;4.38;;;17.50;99.90;;;;;;4991080;28;20461;-45
2022/09/05 06:04:46;;;;;;;3.75;3.45;;;17.80;99.90;;;;;;4991125;28;20034;-43
2022/09/05 06:07:51;;;;;;;3.97;3.65;;;18.10;99.90;;;;;;5061099;28;20496;-47
2022/09/05 06:10:26;;;;;;;4.28;3.88;;;18.30;99.90;;;;;;5072537;28;20027;-46
2022/09/05 06:13:28;;;;;;;5.72;3.97;;;18.50;99.90;;;;;;5072762;28;20032;-45
2022/09/05 06:16:03;;;;;;;4.90;3.97;;;18.60;99.90;;;;;;5072723;28;20103;-46
2022/09/05 06:19:03;;;;;;;4.55;3.63;;;18.90;99.90;;;;;;5072353;28;20020;-42
2022/09/05 06:21:50;;;;;;;4.97;3.38;;;19.20;99.90;;;;;;5072487;28;20028;-45
2022/09/05 06:24:25;;;;;;;3.53;3.22;;;19.70;99.90;;;;;;5072339;28;20361;-45
2022/09/05 06:27:00;;;;;;;3.13;2.85;;;20.30;99.90;;;;;;5072595;28;20024;-48
2022/09/05 06:29:40;;;;;;;4.97;2.88;;;20.80;99.90;;;;;;5072588;28;20036;-46
2022/09/05 06:32:45;;;;;;;3.47;3.15;;;21.30;99.90;;;;;;5072019;28;20024;-46
2022/09/05 06:35:26;;;;;;;4.65;3.28;;;22.10;99.90;;;;;;5072387;28;20086;-46
2022/09/05 06:38:01;;;;;;;2.70;2.50;;;23.10;99.90;;;;;;5072296;28;20044;-44
2022/09/05 06:41:04;;;;;;;6.70;2.42;;;23.90;99.90;;;;;;5072251;28;20025;-45
2022/09/05 06:44:05;;;;;;;4.15;2.75;;;24.70;98.70;;;;;;5071958;28;20052;-44
2022/09/05 06:46:33;;;;;;;2.67;2.17;;;25.40;97.40;;;;;;5072154;28;20024;-43
2022/09/05 06:49:24;;;;;;;7.25;3.00;;;25.80;96.50;;;;;;5071831;28;20028;-47
2022/09/05 06:51:50;;;;;;;2.63;2.25;;;26.60;95.50;;;;;;5072096;28;20437;-42
2022/09/05 06:54:44;;;;;;;2.97;2.72;;;27.30;94.20;;;;;;5071776;28;20111;-46
2022/09/05 06:57:46;;;;;;;6.18;2.08;;;27.80;93.10;;;;;;5071784;28;20036;-43
2022/09/05 07:00:24;;;;;;;2.30;1.83;;;28.20;92.10;;;;;;5071823;28;20033;-47
2022/09/05 07:03:14;;;;;;;5.05;2.20;;;28.10;92.10;;;;;;5071534;28;20028;-43
2022/09/05 07:06:17;;;;;;;4.63;2.53;;;28.30;91.70;;;;;;5072276;28;20384;-45
2022/09/05 07:08:46;;;;;;;2.30;2.10;;;28.40;91.40;;;;;;5071651;28;20024;-47
2022/09/05 07:11:28;;;;;;;2.28;2.13;;;27.90;91.70;;;;;;5070836;28;20040;-45
2022/09/05 07:14:19;;;;;;;2.80;2.05;;;27.60;92.20;;;;;;5052547;28;20039;-48
2022/09/05 07:16:47;;;;;;;4.15;2.10;;;27.40;92.60;;;;;;5071584;28;20120;-44
2022/09/05 07:19:37;;;;;;;4.82;2.03;;;27.60;92.40;;;;;;5071503;28;20070;-43
2022/09/05 07:22:13;;;;;;;1.98;1.85;;;27.70;92.20;;;;;;5070252;28;20016;-42
2022/09/05 07:24:43;;;;;;;3.75;2.17;;;27.80;91.90;;;;;;5072128;28;20505;-44
2022/09/05 07:27:12;;;;;;;3.83;2.00;;;28.10;91.40;;;;;;5071980;28;20162;-45
2022/09/05 07:29:43;;;;;;;2.42;2.10;;;27.70;91.70;;;;;;5072140;28;20077;-42
2022/09/05 07:32:16;;;;;;;6.20;2.15;;;27.60;92.20;;;;;;5072011;28;20037;-51
2022/09/05 07:34:45;;;;;;;5.05;1.85;;;27.20;92.20;;;;;;5071874;28;20050;-44
2022/09/05 07:37:22;;;;;;;2.75;2.28;;;26.60;93.10;;;;;;5071807;28;20116;-45
2022/09/05 07:40:00;;;;;;;2.08;1.98;;;26.20;93.70;;;;;;5071486;28;20480;-43
2022/09/05 07:42:40;;;;;;;6.93;2.33;;;26.10;94.40;;;;;;5071255;28;20055;-44
2022/09/05 07:45:10;;;;;;;2.30;2.10;;;26.00;94.20;;;;;;5071386;28;20029;-47
2022/09/05 07:47:47;;;;;;;3.28;2.10;;;25.90;94.80;;;;;;5071492;28;20099;-44
2022/09/05 07:50:13;;;;;;;2.75;1.95;;;26.50;93.60;;;;;;5071473;28;20021;-45
2022/09/05 07:52:43;;;;;;;2.47;2.10;;;27.00;93.10;;;;;;5071223;28;20022;-42
2022/09/05 07:55:33;;;;;;;1.75;1.65;;;27.10;93.20;;;;;;5071328;28;20017;-42
2022/09/05 07:58:01;;;;;;;3.00;1.80;;;28.00;92.30;;;;;;5070668;28;20510;-45
2022/09/05 08:00:28;;;;;;;2.97;2.00;;;29.10;91.20;;;;;;5071059;28;20120;-44
2022/09/05 08:02:56;;;;;;;8.05;2.00;;;29.90;90.20;;;;;;5070837;28;20021;-45
2022/09/05 08:05:25;;;;;;;5.25;1.75;;;30.80;87.80;;;;;;5071111;28;20491;-44
2022/09/05 08:07:54;;;;;;;4.25;1.48;;;31.40;85.90;;;;;;5071125;28;20388;-44
2022/09/05 08:10:37;;;;;;;3.47;1.35;;;31.90;83.90;;;;;;5071119;28;20032;-48
2022/09/05 08:13:15;;;;;;;3.15;1.60;;;32.50;81.90;;;;;;5070888;28;20107;-44
2022/09/05 08:15:48;;;;;;;1.80;1.48;;;32.70;80.00;;;;;;5071101;28;20045;-44
2022/09/05 08:18:29;;;;;;;1.42;1.33;;;33.00;78.90;;;;;;5070831;28;20070;-44
2022/09/05 08:21:09;;;;;;;6.65;1.50;;;32.90;78.80;;;;;;5070905;28;20472;-45
2022/09/05 08:23:47;;;;;;;4.13;1.67;;;32.80;79.10;;;;;;5070764;28;20512;-42
2022/09/05 08:26:16;;;;;;;6.20;1.60;;;33.00;78.00;;;;;;5052880;28;20024;-48
2022/09/05 08:29:00;;;;;;;1.75;1.52;;;32.80;77.90;;;;;;5070787;28;20031;-46
2022/09/05 08:31:52;;;;;;;4.97;1.27;;;32.70;77.70;;;;;;5070955;28;20024;-44
2022/09/05 08:34:42;;;;;;;3.88;1.67;;;32.60;77.40;;;;;;5074477;28;20116;-44
2022/09/05 08:37:11;;;;;;;2.42;1.33;;;32.10;78.20;;;;;;5074522;28;20048;-45
2022/09/05 08:39:38;;;;;;;2.63;2.10;;;32.50;77.90;;;;;;5074629;28;20403;-42
2022/09/05 08:42:07;;;;;;;3.50;1.63;;;33.00;77.30;;;;;;5074160;28;20562;-47
2022/09/05 08:44:39;;;;;;;7.90;1.25;;;33.50;76.50;;;;;;5074498;28;20021;-46
2022/09/05 08:47:18;;;;;;;2.67;1.83;;;33.90;74.90;;;;;;5074431;28;20127;-45
2022/09/05 08:50:21;;;;;;;5.25;2.13;;;34.40;74.10;;;;;;5074312;28;20100;-44
2022/09/05 08:53:04;;;;;;;3.60;1.48;;;34.60;72.90;;;;;;5074100;28;20031;-48
2022/09/05 08:55:38;;;;;;;1.92;1.30;;;35.10;71.40;;;;;;5074272;28;20036;-43
2022/09/05 08:58:45;;;;;;;2.05;1.35;;;35.10;71.30;;;;;;5073525;28;20020;-46
2022/09/05 09:01:29;;;;;;;7.68;1.20;;;35.60;69.50;;;;;;5046578;28;20041;-47
2022/09/05 09:04:10;;;;;;;10.40;1.40;;;35.40;69.20;;;;;;5073916;28;20025;-46
2022/09/05 09:07:09;;;;;;;1.52;0.90;;;35.40;69.00;;;;;;5074175;28;20491;-45
2022/09/05 09:09:50;;;;;;;1.63;1.00;;;34.90;68.80;;;;;;5073957;28;20029;-47
2022/09/05 09:12:18;;;;;;;3.50;1.40;;;33.60;70.70;;;;;;5073632;28;20078;-47
2022/09/05 09:15:11;;;;;;;3.13;1.17;;;33.10;72.00;;;;;;5073957;28;20033;-45
2022/09/05 09:17:41;;;;;;;4.60;1.17;;;32.30;73.30;;;;;;5032698;28;20041;-46
2022/09/05 09:20:45;;;;;;;4.03;1.35;;;31.80;74.80;;;;;;5055620;28;20020;-45
2022/09/05 09:23:25;;;;;;;1.08;1.05;;;31.40;75.80;;;;;;5073457;28;20020;-45
2022/09/05 09:26:10;;;;;;;2.95;1.40;;;31.20;76.40;;;;;;5073856;28;20027;-44
2022/09/05 09:28:41;;;;;;;;;;;30.90;76.90;;;;;;5055868;28;20028;-44
2022/09/05 09:31:33;;;;;;;3.35;1.55;;;30.50;78.10;;;;;;5073934;28;19904;-46
2022/09/05 09:34:25;;;;;;;4.25;1.30;;;30.40;78.50;;;;;;5074324;28;20036;-46
2022/09/05 09:37:17;;;;;;;1.98;1.58;;;30.00;79.20;;;;;;5042513;28;20044;-47
2022/09/05 09:39:54;;;;;;;2.40;1.45;;;29.50;80.20;;;;;;5055228;28;20031;-48
2022/09/05 09:42:29;;;;;;;6.68;1.45;;;29.00;81.20;;;;;;5072989;28;20024;-49
2022/09/05 09:45:18;;;;;;;1.55;1.45;;;29.10;81.70;;;;;;5072520;28;20370;-44
2022/09/05 09:48:28;;;;;;;2.88;1.23;;;29.20;81.30;;;;;;5035298;28;20174;-46
2022/09/05 09:51:21;;;;;;;1.20;1.15;;;29.10;81.00;;;;;;5073542;28;20485;-44
2022/09/05 09:54:05;;;;;;;2.67;1.65;;;29.30;80.90;;;;;;5072848;28;20027;-45
2022/09/05 09:57:10;;;;;;;1.90;1.73;;;29.30;81.40;;;;;;5073173;28;20035;-45
2022/09/05 10:00:13;;;;;;;1.60;1.50;;;29.20;80.80;;;;;;5035931;28;20044;-45
2022/09/05 10:02:55;;;;;;;4.57;1.50;;;28.40;82.70;;;;;;5072775;28;20028;-44
2022/09/05 10:05:36;;;;;;;1.30;1.30;;;28.00;84.60;;;;;;5072948;28;20048;-47
2022/09/05 10:08:51;;;;;;;1.50;1.30;;;27.60;84.40;;;;;;5054942;28;20441;-43
2022/09/05 10:11:34;;;;;;;6.03;1.50;;;27.70;85.20;;;;;;5042032;28;20472;-46
2022/09/05 10:14:15;;;;;;;1.77;1.33;;;28.10;84.60;;;;;;5072216;28;20020;-43
2022/09/05 10:17:04;;;;;;;2.15;1.45;;;28.50;84.20;;;;;;5072069;28;20448;-45
2022/09/05 10:19:53;;;;;;;1.67;1.20;;;28.60;82.50;;;;;;5072193;28;20051;-42
2022/09/05 10:22:43;;;;;;;2.45;1.20;;;28.60;84.30;;;;;;5072016;28;20063;-48
2022/09/05 10:25:27;;;;;;;1.85;1.35;;;28.40;82.60;;;;;;5072583;28;20495;-46
2022/09/05 10:28:15;;;;;;;1.38;1.25;;;28.30;83.00;;;;;;5054437;28;20107;-45
2022/09/05 10:31:04;;;;;;;1.38;1.20;;;28.30;83.20;;;;;;5072397;28;20024;-45
2022/09/05 10:33:55;;;;;;;3.88;1.30;;;28.20;83.40;;;;;;5072126;28;20040;-43
2022/09/05 10:36:26;;;;;;;6.43;1.63;;;28.30;83.40;;;;;;5072474;28;20025;-43
2022/09/05 10:39:10;;;;;;;1.13;1.13;;;28.50;83.80;;;;;;5072161;28;20031;-44
2022/09/05 10:41:48;;;;;;;2.78;1.40;;;28.70;83.20;;;;;;5072204;28;20021;-44
2022/09/05 10:44:16;;;;;;;4.72;2.03;;;28.80;82.20;;;;;;5072438;28;20134;-44
2022/09/05 10:47:10;;;;;;;1.85;1.50;;;28.80;81.80;;;;;;5072160;28;20024;-47
2022/09/05 10:49:43;;;;;;;1.10;1.10;;;28.80;82.20;;;;;;5072215;28;20426;-44
2022/09/05 10:52:11;;;;;;;4.88;1.27;;;28.70;82.60;;;;;;5072000;28;20055;-44
2022/09/05 10:55:08;;;;;;;1.40;1.30;;;28.70;83.40;;;;;;5071915;28;20027;-41
2022/09/05 10:58:06;;;;;;;1.23;1.13;;;28.60;83.00;;;;;;5071433;28;20030;-44
2022/09/05 11:00:59;;;;;;;1.23;1.15;;;28.40;82.90;;;;;;5072170;28;20035;-44
2022/09/05 11:03:46;;;;;;;1.40;1.30;;;28.30;84.00;;;;;;5072113;28;20360;-48
2022/09/05 11:06:17;;;;;;;8.65;1.67;;;28.20;83.10;;;;;;5072268;28;20017;-44
2022/09/05 11:09:12;;;;;;;1.60;1.50;;;28.10;83.90;;;;;;5072155;28;20020;-48
2022/09/05 11:11:44;;;;;;;1.50;1.40;;;28.10;84.60;;;;;;5071911;28;20086;-43
2022/09/05 11:14:48;;;;;;;1.88;1.77;;;27.90;83.00;;;;;;5071795;28;20395;-45
2022/09/05 11:17:27;;;;;;;5.93;1.40;;;27.90;84.00;;;;;;5071883;28;20514;-47
2022/09/05 11:20:05;;;;;;;3.92;1.30;;;27.70;83.30;;;;;;5071768;28;20083;-49
2022/09/05 11:22:38;;;;;;;4.10;1.35;;;27.60;84.00;;;;;;5071629;28;20123;-42
2022/09/05 11:25:18;;;;;;;2.03;1.30;;;27.50;83.90;;;;;;5071999;28;20020;-44
2022/09/05 11:27:48;;;;;;;1.48;1.38;;;27.40;84.10;;;;;;5071854;28;20027;-47
2022/09/05 11:30:23;;;;;;;2.38;1.30;;;27.40;84.80;;;;;;5071558;28;20036;-46
2022/09/05 11:33:03;;;;;;;3.92;1.50;;;27.40;84.70;;;;;;5071490;28;20025;-47
2022/09/05 11:35:33;;;;;;;5.10;1.90;;;27.50;84.80;;;;;;5071727;28;20024;-46
2022/09/05 11:38:13;;;;;;;2.50;1.58;;;27.50;84.90;;;;;;5071778;28;20020;-44
2022/09/05 11:40:44;;;;;;;2.50;1.73;;;27.60;85.40;;;;;;5071363;28;20553;-44
2022/09/05 11:43:35;;;;;;;1.60;1.50;;;27.60;85.20;;;;;;5071381;28;20021;-45
2022/09/05 11:46:27;;;;;;;1.30;1.20;;;27.60;84.50;;;;;;5071340;28;20082;-47
2022/09/05 11:49:13;;;;;;;1.50;1.40;;;27.60;85.10;;;;;;5071466;28;20028;-49
2022/09/05 11:52:03;;;;;;;2.78;1.77;;;27.60;85.10;;;;;;5071630;28;20032;-43
2022/09/05 11:54:56;;;;;;;2.58;1.35;;;27.60;85.00;;;;;;5071585;28;20024;-44
2022/09/05 11:57:33;;;;;;;6.07;1.70;;;27.60;86.20;;;;;;5070944;28;20029;-44
2022/09/05 11:59:59;;;;;;;1.92;1.23;;;27.60;86.20;;;;;;5071293;28;20040;-43
2022/09/05 12:02:32;;;;;;;2.45;1.63;;;27.70;85.30;;;;;;5071068;28;20028;-44
2022/09/05 12:05:36;;;;;;;1.73;1.10;;;27.70;85.20;;;;;;5071401;28;20049;-44
2022/09/05 12:08:11;;;;;;;2.28;1.50;;;27.70;84.10;;;;;;5073607;28;20476;-44
2022/09/05 12:10:46;;;;;;;1.85;1.48;;;27.80;83.90;;;;;;5075347;28;20491;-46
2022/09/05 12:13:47;;;;;;;1.38;1.27;;;27.90;82.70;;;;;;5075199;28;20025;-43
2022/09/05 12:16:40;;;;;;;2.53;1.40;;;27.90;83.00;;;;;;5037434;28;20033;-45
2022/09/05 12:19:33;;;;;;;5.97;1.42;;;27.90;82.10;;;;;;5074955;28;20036;-44
2022/09/05 12:22:01;;;;;;;1.20;1.20;;;27.90;81.80;;;;;;5074633;28;20485;-45
2022/09/05 12:24:42;;;;;;;1.20;1.20;;;27.80;82.10;;;;;;5074843;28;20032;-45
2022/09/05 12:27:10;;;;;;;2.95;1.35;;;27.90;82.70;;;;;;5075289;28;20456;-44
2022/09/05 12:29:41;;;;;;;1.40;1.30;;;27.90;81.60;;;;;;5074422;28;20547;-42
2022/09/05 12:32:15;;;;;;;1.15;1.15;;;28.00;80.50;;;;;;5074437;28;20032;-45
2022/09/05 12:34:59;;;;;;;4.65;1.50;;;28.00;80.70;;;;;;5074782;28;20028;-46
2022/09/05 12:37:36;;;;;;;1.50;1.40;;;28.00;82.60;;;;;;5075003;28;20403;-47
2022/09/05 12:40:10;;;;;;;1.77;1.42;;;28.10;82.00;;;;;;5074872;28;20403;-46
2022/09/05 12:43:03;;;;;;;1.50;1.40;;;28.20;80.70;;;;;;5074760;28;20396;-43
2022/09/05 12:45:40;;;;;;;3.08;1.42;;;28.20;81.40;;;;;;5075045;28;20447;-46
2022/09/05 12:48:17;;;;;;;2.60;1.20;;;28.20;81.30;;;;;;5074540;28;20032;-47
2022/09/05 12:51:06;;;;;;;1.33;1.33;;;28.30;81.00;;;;;;5074705;28;20438;-44
2022/09/05 12:53:53;;;;;;;1.88;1.52;;;28.30;80.10;;;;;;5074358;28;20033;-44
2022/09/05 12:56:51;;;;;;;2.00;1.50;;;28.30;80.20;;;;;;5074417;28;20032;-47
2022/09/05 12:59:20;;;;;;;2.95;1.45;;;28.10;80.50;;;;;;5073921;28;20047;-46
2022/09/05 13:02:02;;;;;;;3.42;1.38;;;28.10;81.20;;;;;;5074222;28;20056;-44
2022/09/05 13:04:33;;;;;;;1.42;1.33;;;28.00;80.20;;;;;;5074293;28;20029;-44
2022/09/05 13:07:06;;;;;;;2.28;1.50;;;28.10;79.10;;;;;;5074426;28;20084;-45
2022/09/05 13:09:50;;;;;;;1.45;1.35;;;28.20;78.00;;;;;;5074094;28;20091;-44
2022/09/05 13:12:18;;;;;;;3.47;1.30;;;28.20;78.40;;;;;;5074351;28;20061;-46
2022/09/05 13:15:02;;;;;;;2.45;1.42;;;28.30;78.60;;;;;;5074263;28;20043;-44
2022/09/05 13:17:39;;;;;;;2.28;1.13;;;28.40;77.20;;;;;;5074041;28;20039;-45
2022/09/05 13:20:14;;;;;;;1.77;1.40;;;28.40;76.00;;;;;;5054658;28;20074;-45
2022/09/05 13:22:42;;;;;;;2.97;1.50;;;28.40;76.70;;;;;;5073778;28;20021;-43
2022/09/05 13:25:15;;;;;;;2.10;1.38;;;28.40;76.00;;;;;;5074414;28;20023;-46
2022/09/05 13:27:55;;;;;;;2.45;1.40;;;28.50;75.70;;;;;;5074072;28;20012;-44
2022/09/05 13:30:22;;;;;;;2.80;1.10;;;28.60;76.90;;;;;;5074088;28;20094;-45
2022/09/05 13:32:49;;;;;;;2.92;1.23;;;28.70;76.90;;;;;;5073641;28;20472;-44
2022/09/05 13:35:28;;;;;;;2.45;1.50;;;28.70;77.20;;;;;;5074140;28;20028;-43
2022/09/05 13:37:59;;;;;;;1.23;1.13;;;28.70;77.60;;;;;;5073869;28;20024;-43
2022/09/05 13:40:37;;;;;;;1.20;1.20;;;28.60;77.90;;;;;;5074062;28;20113;-47
2022/09/05 13:43:05;;;;;;;5.40;1.45;;;28.60;77.70;;;;;;5073280;28;20031;-46
2022/09/05 13:45:36;;;;;;;1.30;1.20;;;28.70;76.80;;;;;;5073750;28;20036;-47
2022/09/05 13:48:27;;;;;;;1.63;1.50;;;28.70;76.10;;;;;;5073631;28;20031;-46
2022/09/05 13:50:58;;;;;;;1.77;1.50;;;28.80;75.50;;;;;;5073488;28;20099;-53
2022/09/05 13:53:30;;;;;;;2.95;1.20;;;28.80;76.00;;;;;;5073258;28;20035;-44
2022/09/05 13:56:26;;;;;;;1.30;1.17;;;28.80;76.00;;;;;;5073512;28;20050;-41
2022/09/05 13:59:02;;;;;;;4.55;1.60;;;28.80;74.50;;;;;;5068930;28;20048;-47
2022/09/05 14:01:36;;;;;;;3.58;1.55;;;28.80;74.90;;;;;;5073291;28;20031;-45
2022/09/05 14:04:15;;;;;;;;;;;28.80;73.80;;;;;;5073444;28;20481;-43
2022/09/05 14:07:07;;;;;;;1.30;1.20;;;28.80;73.50;;;;;;5073207;28;20019;-43
2022/09/05 14:10:11;;;;;;;1.08;1.02;;;28.90;73.70;;;;;;5073299;28;20020;-43